sensor_id;sensor_type;location;lat;lon;timestamp;P1;durP1;ratioP1;P2;durP2;ratioP2
55212;SDS011;41083;52.932;6.674;2023-07-28T00:02:06;9.90;;;3.63;;
55212;SDS011;41083;52.932;6.674;2023-07-28T00:04:33;11.18;;;3.67;;
55212;SDS011;41083;52.932;6.674;2023-07-28T00:06:59;8.95;;;3.20;;
55212;SDS011;41083;52.932;6.674;2023-07-28T00:09:25;9.07;;;3.70;;
55212;SDS011;41083;52.932;6.674;2023-07-28T00:11:51;9.77;;;3.38;;
55212;SDS011;41083;52.932;6.674;2023-07-28T00:14:16;9.30;;;3.50;;
55212;SDS011;41083;52.932;6.674;2023-07-28T00:16:42;8.95;;;3.88;;
55212;SDS011;41083;52.932;6.674;2023-07-28T00:19:08;8.88;;;3.95;;
55212;SDS011;41083;52.932;6.674;2023-07-28T00:21:33;7.45;;;3.22;;
55212;SDS011;41083;52.932;6.674;2023-07-28T00:23:59;8.40;;;3.20;;
55212;SDS011;41083;52.932;6.674;2023-07-28T00:26:24;12.57;;;3.83;;
55212;SDS011;41083;52.932;6.674;2023-07-28T00:28:50;8.77;;;3.30;;
55212;SDS011;41083;52.932;6.674;2023-07-28T00:31:15;8.50;;;3.17;;
55212;SDS011;41083;52.932;6.674;2023-07-28T00:33:41;9.73;;;3.22;;
55212;SDS011;41083;52.932;6.674;2023-07-28T00:36:07;7.43;;;3.28;;
55212;SDS011;41083;52.932;6.674;2023-07-28T00:38:33;9.80;;;3.65;;
55212;SDS011;41083;52.932;6.674;2023-07-28T00:40:58;10.85;;;3.33;;
55212;SDS011;41083;52.932;6.674;2023-07-28T00:43:24;11.23;;;3.50;;
55212;SDS011;41083;52.932;6.674;2023-07-28T00:45:50;9.00;;;3.75;;
55212;SDS011;41083;52.932;6.674;2023-07-28T00:48:15;8.88;;;3.15;;
55212;SDS011;41083;52.932;6.674;2023-07-28T00:50:42;9.15;;;3.70;;
55212;SDS011;41083;52.932;6.674;2023-07-28T00:53:11;8.10;;;3.75;;
55212;SDS011;41083;52.932;6.674;2023-07-28T00:55:37;9.80;;;4.28;;
55212;SDS011;41083;52.932;6.674;2023-07-28T00:58:03;7.00;;;3.20;;
55212;SDS011;41083;52.932;6.674;2023-07-28T01:00:29;9.90;;;3.42;;
55212;SDS011;41083;52.932;6.674;2023-07-28T01:02:55;10.32;;;4.40;;
55212;SDS011;41083;52.932;6.674;2023-07-28T01:05:22;10.02;;;4.07;;
55212;SDS011;41083;52.932;6.674;2023-07-28T01:08:06;14.32;;;3.70;;
55212;SDS011;41083;52.932;6.674;2023-07-28T01:10:44;9.07;;;3.50;;
55212;SDS011;41083;52.932;6.674;2023-07-28T01:13:10;10.07;;;3.17;;
55212;SDS011;41083;52.932;6.674;2023-07-28T01:15:35;9.90;;;3.75;;
55212;SDS011;41083;52.932;6.674;2023-07-28T01:18:01;9.80;;;4.40;;
55212;SDS011;41083;52.932;6.674;2023-07-28T01:20:29;10.07;;;4.03;;
55212;SDS011;41083;52.932;6.674;2023-07-28T01:28:35;13.13;;;3.97;;
55212;SDS011;41083;52.932;6.674;2023-07-28T01:31:02;10.77;;;3.95;;
55212;SDS011;41083;52.932;6.674;2023-07-28T01:33:29;9.27;;;4.30;;
55212;SDS011;41083;52.932;6.674;2023-07-28T01:35:55;8.93;;;4.05;;
55212;SDS011;41083;52.932;6.674;2023-07-28T01:38:21;11.82;;;4.15;;
55212;SDS011;41083;52.932;6.674;2023-07-28T01:40:46;12.68;;;3.75;;
55212;SDS011;41083;52.932;6.674;2023-07-28T01:43:12;8.48;;;3.67;;
55212;SDS011;41083;52.932;6.674;2023-07-28T01:45:38;11.75;;;4.18;;
55212;SDS011;41083;52.932;6.674;2023-07-28T01:48:04;12.85;;;4.20;;
55212;SDS011;41083;52.932;6.674;2023-07-28T01:50:30;10.63;;;3.40;;
55212;SDS011;41083;52.932;6.674;2023-07-28T01:52:55;12.23;;;4.15;;
55212;SDS011;41083;52.932;6.674;2023-07-28T01:55:21;8.93;;;3.88;;
55212;SDS011;41083;52.932;6.674;2023-07-28T01:58:00;8.43;;;3.65;;
55212;SDS011;41083;52.932;6.674;2023-07-28T02:00:27;12.07;;;3.97;;
55212;SDS011;41083;52.932;6.674;2023-07-28T02:02:53;9.30;;;4.03;;
55212;SDS011;41083;52.932;6.674;2023-07-28T02:05:19;14.73;;;4.25;;
55212;SDS011;41083;52.932;6.674;2023-07-28T02:07:45;9.25;;;3.33;;
55212;SDS011;41083;52.932;6.674;2023-07-28T02:10:11;10.88;;;3.80;;
55212;SDS011;41083;52.932;6.674;2023-07-28T02:12:37;10.23;;;3.70;;
55212;SDS011;41083;52.932;6.674;2023-07-28T02:15:04;9.00;;;3.95;;
55212;SDS011;41083;52.932;6.674;2023-07-28T02:17:31;12.90;;;4.70;;
55212;SDS011;41083;52.932;6.674;2023-07-28T02:19:56;9.73;;;4.28;;
55212;SDS011;41083;52.932;6.674;2023-07-28T02:22:22;14.50;;;4.43;;
55212;SDS011;41083;52.932;6.674;2023-07-28T02:24:47;16.02;;;4.55;;
55212;SDS011;41083;52.932;6.674;2023-07-28T02:27:13;12.93;;;3.70;;
55212;SDS011;41083;52.932;6.674;2023-07-28T02:29:38;12.10;;;3.45;;
55212;SDS011;41083;52.932;6.674;2023-07-28T02:32:04;11.48;;;5.03;;
55212;SDS011;41083;52.932;6.674;2023-07-28T02:34:30;14.93;;;4.40;;
55212;SDS011;41083;52.932;6.674;2023-07-28T02:36:56;15.93;;;4.47;;
55212;SDS011;41083;52.932;6.674;2023-07-28T02:39:22;13.50;;;4.50;;
55212;SDS011;41083;52.932;6.674;2023-07-28T02:41:48;10.63;;;3.83;;
55212;SDS011;41083;52.932;6.674;2023-07-28T02:44:13;11.48;;;4.10;;
55212;SDS011;41083;52.932;6.674;2023-07-28T02:46:39;9.00;;;3.85;;
55212;SDS011;41083;52.932;6.674;2023-07-28T02:49:04;7.85;;;3.92;;
55212;SDS011;41083;52.932;6.674;2023-07-28T02:51:30;9.65;;;3.60;;
55212;SDS011;41083;52.932;6.674;2023-07-28T02:53:56;10.27;;;4.20;;
55212;SDS011;41083;52.932;6.674;2023-07-28T02:56:21;8.00;;;3.97;;
55212;SDS011;41083;52.932;6.674;2023-07-28T02:58:48;9.25;;;3.72;;
55212;SDS011;41083;52.932;6.674;2023-07-28T03:01:13;12.15;;;4.45;;
55212;SDS011;41083;52.932;6.674;2023-07-28T03:03:39;12.07;;;3.67;;
55212;SDS011;41083;52.932;6.674;2023-07-28T03:06:05;10.93;;;3.95;;
55212;SDS011;41083;52.932;6.674;2023-07-28T03:08:30;11.63;;;3.97;;
55212;SDS011;41083;52.932;6.674;2023-07-28T03:10:59;13.35;;;4.10;;
55212;SDS011;41083;52.932;6.674;2023-07-28T03:13:28;10.80;;;3.92;;
55212;SDS011;41083;52.932;6.674;2023-07-28T03:15:53;12.15;;;3.88;;
55212;SDS011;41083;52.932;6.674;2023-07-28T03:18:19;11.73;;;4.20;;
55212;SDS011;41083;52.932;6.674;2023-07-28T03:20:45;11.18;;;3.80;;
55212;SDS011;41083;52.932;6.674;2023-07-28T03:23:11;11.43;;;3.97;;
55212;SDS011;41083;52.932;6.674;2023-07-28T03:25:37;10.73;;;4.03;;
55212;SDS011;41083;52.932;6.674;2023-07-28T03:28:03;9.27;;;3.67;;
55212;SDS011;41083;52.932;6.674;2023-07-28T03:30:29;10.15;;;4.45;;
55212;SDS011;41083;52.932;6.674;2023-07-28T03:32:54;9.52;;;3.45;;
55212;SDS011;41083;52.932;6.674;2023-07-28T03:35:20;8.27;;;3.83;;
55212;SDS011;41083;52.932;6.674;2023-07-28T03:37:45;9.80;;;4.38;;
55212;SDS011;41083;52.932;6.674;2023-07-28T03:40:11;11.85;;;3.97;;
55212;SDS011;41083;52.932;6.674;2023-07-28T03:42:37;12.32;;;3.97;;
55212;SDS011;41083;52.932;6.674;2023-07-28T03:45:03;12.88;;;4.22;;
55212;SDS011;41083;52.932;6.674;2023-07-28T03:47:28;10.23;;;3.80;;
55212;SDS011;41083;52.932;6.674;2023-07-28T03:49:54;9.57;;;4.57;;
55212;SDS011;41083;52.932;6.674;2023-07-28T03:52:20;12.50;;;4.20;;
55212;SDS011;41083;52.932;6.674;2023-07-28T03:54:45;7.93;;;4.53;;
55212;SDS011;41083;52.932;6.674;2023-07-28T03:57:11;14.55;;;5.15;;
55212;SDS011;41083;52.932;6.674;2023-07-28T03:59:36;15.23;;;4.10;;
55212;SDS011;41083;52.932;6.674;2023-07-28T04:02:02;12.85;;;4.85;;
55212;SDS011;41083;52.932;6.674;2023-07-28T04:04:27;12.00;;;4.55;;
55212;SDS011;41083;52.932;6.674;2023-07-28T04:06:53;9.73;;;4.10;;
55212;SDS011;41083;52.932;6.674;2023-07-28T04:09:19;9.85;;;4.78;;
55212;SDS011;41083;52.932;6.674;2023-07-28T04:11:45;10.80;;;4.28;;
55212;SDS011;41083;52.932;6.674;2023-07-28T04:14:11;12.57;;;4.32;;
55212;SDS011;41083;52.932;6.674;2023-07-28T04:16:37;9.50;;;4.07;;
55212;SDS011;41083;52.932;6.674;2023-07-28T04:19:02;12.77;;;4.57;;
55212;SDS011;41083;52.932;6.674;2023-07-28T04:21:28;13.70;;;4.82;;
55212;SDS011;41083;52.932;6.674;2023-07-28T04:23:53;8.98;;;4.05;;
55212;SDS011;41083;52.932;6.674;2023-07-28T04:26:19;6.93;;;3.35;;
55212;SDS011;41083;52.932;6.674;2023-07-28T04:28:45;8.82;;;4.13;;
55212;SDS011;41083;52.932;6.674;2023-07-28T04:31:11;12.88;;;4.07;;
55212;SDS011;41083;52.932;6.674;2023-07-28T04:33:36;9.45;;;4.28;;
55212;SDS011;41083;52.932;6.674;2023-07-28T04:36:05;12.63;;;4.07;;
55212;SDS011;41083;52.932;6.674;2023-07-28T04:38:31;11.43;;;3.88;;
55212;SDS011;41083;52.932;6.674;2023-07-28T04:40:57;13.15;;;4.90;;
55212;SDS011;41083;52.932;6.674;2023-07-28T04:43:22;14.30;;;4.00;;
55212;SDS011;41083;52.932;6.674;2023-07-28T04:45:48;8.38;;;4.00;;
55212;SDS011;41083;52.932;6.674;2023-07-28T04:48:13;13.77;;;4.78;;
55212;SDS011;41083;52.932;6.674;2023-07-28T04:50:39;8.48;;;3.80;;
55212;SDS011;41083;52.932;6.674;2023-07-28T04:53:05;8.77;;;3.75;;
55212;SDS011;41083;52.932;6.674;2023-07-28T04:55:30;9.38;;;4.60;;
55212;SDS011;41083;52.932;6.674;2023-07-28T04:57:56;10.75;;;4.40;;
55212;SDS011;41083;52.932;6.674;2023-07-28T05:00:22;10.70;;;4.68;;
55212;SDS011;41083;52.932;6.674;2023-07-28T05:02:48;9.52;;;3.70;;
55212;SDS011;41083;52.932;6.674;2023-07-28T05:05:14;8.07;;;4.35;;
55212;SDS011;41083;52.932;6.674;2023-07-28T05:07:40;8.85;;;4.10;;
55212;SDS011;41083;52.932;6.674;2023-07-28T05:10:05;6.97;;;3.67;;
55212;SDS011;41083;52.932;6.674;2023-07-28T05:12:31;8.30;;;3.30;;
55212;SDS011;41083;52.932;6.674;2023-07-28T05:14:57;9.65;;;3.95;;
55212;SDS011;41083;52.932;6.674;2023-07-28T05:17:22;7.30;;;3.95;;
55212;SDS011;41083;52.932;6.674;2023-07-28T05:19:49;12.63;;;4.63;;
55212;SDS011;41083;52.932;6.674;2023-07-28T05:22:15;10.25;;;4.22;;
55212;SDS011;41083;52.932;6.674;2023-07-28T05:24:41;14.55;;;4.45;;
55212;SDS011;41083;52.932;6.674;2023-07-28T05:27:07;9.10;;;4.00;;
55212;SDS011;41083;52.932;6.674;2023-07-28T05:29:33;11.23;;;4.18;;
55212;SDS011;41083;52.932;6.674;2023-07-28T05:31:58;9.88;;;3.90;;
55212;SDS011;41083;52.932;6.674;2023-07-28T05:34:27;12.63;;;4.18;;
55212;SDS011;41083;52.932;6.674;2023-07-28T05:36:52;8.85;;;4.25;;
55212;SDS011;41083;52.932;6.674;2023-07-28T05:39:18;9.88;;;3.67;;
55212;SDS011;41083;52.932;6.674;2023-07-28T05:41:44;10.80;;;4.15;;
55212;SDS011;41083;52.932;6.674;2023-07-28T05:44:09;11.80;;;3.95;;
55212;SDS011;41083;52.932;6.674;2023-07-28T05:46:35;10.70;;;4.20;;
55212;SDS011;41083;52.932;6.674;2023-07-28T05:49:01;9.55;;;4.60;;
55212;SDS011;41083;52.932;6.674;2023-07-28T05:51:26;8.88;;;4.15;;
55212;SDS011;41083;52.932;6.674;2023-07-28T05:53:52;10.43;;;4.22;;
55212;SDS011;41083;52.932;6.674;2023-07-28T05:56:17;10.75;;;4.60;;
55212;SDS011;41083;52.932;6.674;2023-07-28T05:58:46;10.20;;;4.95;;
55212;SDS011;41083;52.932;6.674;2023-07-28T06:01:12;11.57;;;4.60;;
55212;SDS011;41083;52.932;6.674;2023-07-28T06:03:38;9.73;;;4.25;;
55212;SDS011;41083;52.932;6.674;2023-07-28T06:06:04;9.82;;;4.32;;
55212;SDS011;41083;52.932;6.674;2023-07-28T06:08:30;10.35;;;4.25;;
55212;SDS011;41083;52.932;6.674;2023-07-28T06:10:55;8.80;;;4.10;;
55212;SDS011;41083;52.932;6.674;2023-07-28T06:13:21;10.02;;;4.72;;
55212;SDS011;41083;52.932;6.674;2023-07-28T06:15:47;10.35;;;3.97;;
55212;SDS011;41083;52.932;6.674;2023-07-28T06:18:12;10.40;;;4.32;;
55212;SDS011;41083;52.932;6.674;2023-07-28T06:20:41;12.02;;;4.45;;
55212;SDS011;41083;52.932;6.674;2023-07-28T06:23:10;9.13;;;4.53;;
55212;SDS011;41083;52.932;6.674;2023-07-28T06:25:36;11.90;;;4.93;;
55212;SDS011;41083;52.932;6.674;2023-07-28T06:28:03;11.50;;;5.00;;
55212;SDS011;41083;52.932;6.674;2023-07-28T06:30:29;8.57;;;4.05;;
55212;SDS011;41083;52.932;6.674;2023-07-28T06:32:55;10.50;;;4.95;;
55212;SDS011;41083;52.932;6.674;2023-07-28T06:35:21;7.32;;;4.07;;
55212;SDS011;41083;52.932;6.674;2023-07-28T06:37:47;11.10;;;4.60;;
55212;SDS011;41083;52.932;6.674;2023-07-28T06:40:13;8.10;;;3.70;;
55212;SDS011;41083;52.932;6.674;2023-07-28T06:42:39;9.68;;;3.67;;
55212;SDS011;41083;52.932;6.674;2023-07-28T06:45:05;8.77;;;4.13;;
55212;SDS011;41083;52.932;6.674;2023-07-28T06:47:31;9.80;;;3.83;;
55212;SDS011;41083;52.932;6.674;2023-07-28T06:49:56;5.78;;;3.20;;
55212;SDS011;41083;52.932;6.674;2023-07-28T06:52:22;9.43;;;3.53;;
55212;SDS011;41083;52.932;6.674;2023-07-28T06:54:48;8.52;;;3.20;;
55212;SDS011;41083;52.932;6.674;2023-07-28T06:57:14;9.65;;;3.80;;
55212;SDS011;41083;52.932;6.674;2023-07-28T06:59:40;12.13;;;4.03;;
55212;SDS011;41083;52.932;6.674;2023-07-28T07:02:06;8.23;;;4.07;;
55212;SDS011;41083;52.932;6.674;2023-07-28T07:04:32;7.65;;;3.63;;
55212;SDS011;41083;52.932;6.674;2023-07-28T07:06:58;13.18;;;3.55;;
55212;SDS011;41083;52.932;6.674;2023-07-28T07:09:23;7.95;;;3.65;;
55212;SDS011;41083;52.932;6.674;2023-07-28T07:11:49;5.95;;;3.60;;
55212;SDS011;41083;52.932;6.674;2023-07-28T07:14:15;6.25;;;3.35;;
55212;SDS011;41083;52.932;6.674;2023-07-28T07:16:41;5.88;;;2.70;;
55212;SDS011;41083;52.932;6.674;2023-07-28T07:19:07;7.50;;;2.72;;
55212;SDS011;41083;52.932;6.674;2023-07-28T07:21:33;5.20;;;2.70;;
55212;SDS011;41083;52.932;6.674;2023-07-28T07:23:59;7.03;;;2.63;;
55212;SDS011;41083;52.932;6.674;2023-07-28T07:26:25;5.70;;;2.55;;
55212;SDS011;41083;52.932;6.674;2023-07-28T07:28:50;7.22;;;2.70;;
55212;SDS011;41083;52.932;6.674;2023-07-28T07:31:16;6.43;;;3.00;;
55212;SDS011;41083;52.932;6.674;2023-07-28T07:33:42;4.32;;;2.67;;
55212;SDS011;41083;52.932;6.674;2023-07-28T07:36:14;7.50;;;3.17;;
55212;SDS011;41083;52.932;6.674;2023-07-28T07:38:41;7.53;;;2.47;;
55212;SDS011;41083;52.932;6.674;2023-07-28T07:41:07;7.65;;;2.78;;
55212;SDS011;41083;52.932;6.674;2023-07-28T07:43:36;6.03;;;3.00;;
55212;SDS011;41083;52.932;6.674;2023-07-28T07:46:01;5.43;;;3.20;;
55212;SDS011;41083;52.932;6.674;2023-07-28T07:48:27;6.68;;;3.15;;
55212;SDS011;41083;52.932;6.674;2023-07-28T07:50:52;8.48;;;3.10;;
55212;SDS011;41083;52.932;6.674;2023-07-28T07:53:18;6.35;;;2.88;;
55212;SDS011;41083;52.932;6.674;2023-07-28T07:55:44;6.60;;;2.78;;
55212;SDS011;41083;52.932;6.674;2023-07-28T07:58:09;6.35;;;3.35;;
55212;SDS011;41083;52.932;6.674;2023-07-28T08:00:36;4.75;;;2.78;;
55212;SDS011;41083;52.932;6.674;2023-07-28T08:03:03;8.20;;;2.80;;
55212;SDS011;41083;52.932;6.674;2023-07-28T08:05:29;6.82;;;3.03;;
55212;SDS011;41083;52.932;6.674;2023-07-28T08:07:55;6.10;;;2.70;;
55212;SDS011;41083;52.932;6.674;2023-07-28T08:10:21;4.78;;;3.13;;
55212;SDS011;41083;52.932;6.674;2023-07-28T08:12:47;8.60;;;2.97;;
55212;SDS011;41083;52.932;6.674;2023-07-28T08:15:13;8.52;;;3.35;;
55212;SDS011;41083;52.932;6.674;2023-07-28T08:17:38;7.97;;;3.10;;
55212;SDS011;41083;52.932;6.674;2023-07-28T08:20:05;6.93;;;3.38;;
55212;SDS011;41083;52.932;6.674;2023-07-28T08:22:32;6.28;;;3.17;;
55212;SDS011;41083;52.932;6.674;2023-07-28T08:24:57;4.88;;;3.10;;
55212;SDS011;41083;52.932;6.674;2023-07-28T08:27:23;4.97;;;3.10;;
55212;SDS011;41083;52.932;6.674;2023-07-28T08:29:49;5.03;;;2.83;;
55212;SDS011;41083;52.932;6.674;2023-07-28T08:32:15;5.32;;;2.90;;
55212;SDS011;41083;52.932;6.674;2023-07-28T08:34:40;5.95;;;2.70;;
55212;SDS011;41083;52.932;6.674;2023-07-28T08:37:06;6.05;;;3.05;;
55212;SDS011;41083;52.932;6.674;2023-07-28T08:39:32;5.32;;;3.30;;
55212;SDS011;41083;52.932;6.674;2023-07-28T08:42:01;7.50;;;3.17;;
55212;SDS011;41083;52.932;6.674;2023-07-28T08:44:31;6.97;;;3.35;;
55212;SDS011;41083;52.932;6.674;2023-07-28T08:46:59;6.30;;;3.63;;
55212;SDS011;41083;52.932;6.674;2023-07-28T08:49:25;5.47;;;3.22;;
55212;SDS011;41083;52.932;6.674;2023-07-28T08:51:51;6.55;;;3.20;;
55212;SDS011;41083;52.932;6.674;2023-07-28T08:54:22;5.70;;;2.88;;
55212;SDS011;41083;52.932;6.674;2023-07-28T08:56:48;6.53;;;3.00;;
55212;SDS011;41083;52.932;6.674;2023-07-28T08:59:20;6.63;;;3.33;;
55212;SDS011;41083;52.932;6.674;2023-07-28T09:01:51;6.05;;;3.35;;
55212;SDS011;41083;52.932;6.674;2023-07-28T09:04:21;4.35;;;2.88;;
55212;SDS011;41083;52.932;6.674;2023-07-28T09:06:48;4.93;;;3.13;;
55212;SDS011;41083;52.932;6.674;2023-07-28T09:09:14;5.70;;;3.33;;
55212;SDS011;41083;52.932;6.674;2023-07-28T09:11:59;7.68;;;3.40;;
55212;SDS011;41083;52.932;6.674;2023-07-28T09:14:26;6.53;;;3.20;;
55212;SDS011;41083;52.932;6.674;2023-07-28T09:16:52;5.63;;;3.50;;
55212;SDS011;41083;52.932;6.674;2023-07-28T09:19:19;7.03;;;3.25;;
55212;SDS011;41083;52.932;6.674;2023-07-28T09:21:45;6.80;;;3.38;;
55212;SDS011;41083;52.932;6.674;2023-07-28T09:24:28;5.70;;;3.45;;
55212;SDS011;41083;52.932;6.674;2023-07-28T09:26:59;5.80;;;3.33;;
55212;SDS011;41083;52.932;6.674;2023-07-28T09:29:26;5.43;;;3.28;;
55212;SDS011;41083;52.932;6.674;2023-07-28T09:32:03;10.13;;;3.65;;
55212;SDS011;41083;52.932;6.674;2023-07-28T09:34:29;7.80;;;3.88;;
55212;SDS011;41083;52.932;6.674;2023-07-28T09:36:56;4.80;;;2.72;;
55212;SDS011;41083;52.932;6.674;2023-07-28T09:39:22;23.20;;;7.18;;
55212;SDS011;41083;52.932;6.674;2023-07-28T09:41:49;8.32;;;3.03;;
55212;SDS011;41083;52.932;6.674;2023-07-28T09:44:15;4.45;;;2.67;;
55212;SDS011;41083;52.932;6.674;2023-07-28T09:46:51;4.43;;;2.20;;
55212;SDS011;41083;52.932;6.674;2023-07-28T09:49:24;6.80;;;2.72;;
55212;SDS011;41083;52.932;6.674;2023-07-28T09:51:54;5.22;;;2.90;;
55212;SDS011;41083;52.932;6.674;2023-07-28T09:54:28;4.85;;;2.30;;
55212;SDS011;41083;52.932;6.674;2023-07-28T09:56:58;4.95;;;2.60;;
55212;SDS011;41083;52.932;6.674;2023-07-28T09:59:40;5.05;;;2.20;;
55212;SDS011;41083;52.932;6.674;2023-07-28T10:02:07;4.43;;;2.30;;
55212;SDS011;41083;52.932;6.674;2023-07-28T10:04:34;4.40;;;2.10;;
55212;SDS011;41083;52.932;6.674;2023-07-28T10:07:00;3.50;;;2.05;;
55212;SDS011;41083;52.932;6.674;2023-07-28T10:09:29;5.40;;;2.03;;
55212;SDS011;41083;52.932;6.674;2023-07-28T10:11:56;3.80;;;1.90;;
55212;SDS011;41083;52.932;6.674;2023-07-28T10:14:34;6.90;;;1.90;;
55212;SDS011;41083;52.932;6.674;2023-07-28T10:17:02;3.20;;;1.92;;
55212;SDS011;41083;52.932;6.674;2023-07-28T10:19:33;5.13;;;2.20;;
55212;SDS011;41083;52.932;6.674;2023-07-28T10:22:07;3.63;;;1.73;;
55212;SDS011;41083;52.932;6.674;2023-07-28T10:27:28;4.50;;;1.97;;
55212;SDS011;41083;52.932;6.674;2023-07-28T10:30:02;4.85;;;2.15;;
55212;SDS011;41083;52.932;6.674;2023-07-28T10:32:34;3.78;;;2.00;;
55212;SDS011;41083;52.932;6.674;2023-07-28T10:37:39;4.03;;;2.13;;
55212;SDS011;41083;52.932;6.674;2023-07-28T10:40:24;3.65;;;2.55;;
55212;SDS011;41083;52.932;6.674;2023-07-28T10:42:53;3.25;;;2.28;;
55212;SDS011;41083;52.932;6.674;2023-07-28T10:45:23;4.72;;;2.55;;
55212;SDS011;41083;52.932;6.674;2023-07-28T10:47:51;4.63;;;2.38;;
55212;SDS011;41083;52.932;6.674;2023-07-28T10:50:17;4.22;;;2.30;;
55212;SDS011;41083;52.932;6.674;2023-07-28T10:52:44;3.78;;;2.15;;
55212;SDS011;41083;52.932;6.674;2023-07-28T10:55:14;6.47;;;2.10;;
55212;SDS011;41083;52.932;6.674;2023-07-28T10:57:46;4.88;;;2.45;;
55212;SDS011;41083;52.932;6.674;2023-07-28T11:00:14;3.63;;;2.00;;
55212;SDS011;41083;52.932;6.674;2023-07-28T11:02:42;5.38;;;2.10;;
55212;SDS011;41083;52.932;6.674;2023-07-28T11:05:18;3.53;;;2.40;;
55212;SDS011;41083;52.932;6.674;2023-07-28T11:07:48;6.00;;;2.72;;
55212;SDS011;41083;52.932;6.674;2023-07-28T11:10:19;4.60;;;2.20;;
55212;SDS011;41083;52.932;6.674;2023-07-28T11:12:46;4.40;;;2.38;;
55212;SDS011;41083;52.932;6.674;2023-07-28T11:15:14;4.68;;;2.00;;
55212;SDS011;41083;52.932;6.674;2023-07-28T11:17:41;4.18;;;2.50;;
55212;SDS011;41083;52.932;6.674;2023-07-28T11:22:45;3.05;;;2.03;;
55212;SDS011;41083;52.932;6.674;2023-07-28T11:25:18;4.05;;;2.35;;
55212;SDS011;41083;52.932;6.674;2023-07-28T11:27:44;4.10;;;2.60;;
55212;SDS011;41083;52.932;6.674;2023-07-28T11:30:11;6.15;;;2.75;;
55212;SDS011;41083;52.932;6.674;2023-07-28T11:32:38;4.82;;;2.38;;
55212;SDS011;41083;52.932;6.674;2023-07-28T11:35:07;3.70;;;2.10;;
55212;SDS011;41083;52.932;6.674;2023-07-28T11:37:35;2.97;;;1.95;;
55212;SDS011;41083;52.932;6.674;2023-07-28T11:40:02;5.45;;;2.35;;
55212;SDS011;41083;52.932;6.674;2023-07-28T11:42:34;3.70;;;1.90;;
55212;SDS011;41083;52.932;6.674;2023-07-28T11:45:04;10.27;;;2.92;;
55212;SDS011;41083;52.932;6.674;2023-07-28T11:47:31;4.53;;;2.47;;
55212;SDS011;41083;52.932;6.674;2023-07-28T11:49:56;4.60;;;2.90;;
55212;SDS011;41083;52.932;6.674;2023-07-28T11:52:32;4.97;;;2.67;;
55212;SDS011;41083;52.932;6.674;2023-07-28T11:55:00;5.60;;;3.00;;
55212;SDS011;41083;52.932;6.674;2023-07-28T11:57:26;3.95;;;2.55;;
55212;SDS011;41083;52.932;6.674;2023-07-28T11:59:55;5.28;;;3.25;;
55212;SDS011;41083;52.932;6.674;2023-07-28T12:02:28;5.57;;;3.10;;
55212;SDS011;41083;52.932;6.674;2023-07-28T12:04:56;5.00;;;3.23;;
55212;SDS011;41083;52.932;6.674;2023-07-28T12:07:30;6.55;;;3.45;;
55212;SDS011;41083;52.932;6.674;2023-07-28T12:09:57;5.57;;;3.33;;
55212;SDS011;41083;52.932;6.674;2023-07-28T12:12:28;7.00;;;4.15;;
55212;SDS011;41083;52.932;6.674;2023-07-28T12:14:55;10.38;;;4.10;;
55212;SDS011;41083;52.932;6.674;2023-07-28T12:17:24;7.75;;;4.47;;
55212;SDS011;41083;52.932;6.674;2023-07-28T12:22:44;9.80;;;4.88;;
55212;SDS011;41083;52.932;6.674;2023-07-28T12:25:10;9.50;;;4.70;;
55212;SDS011;41083;52.932;6.674;2023-07-28T12:27:36;12.65;;;4.55;;
55212;SDS011;41083;52.932;6.674;2023-07-28T12:30:02;7.95;;;4.18;;
55212;SDS011;41083;52.932;6.674;2023-07-28T12:32:29;7.30;;;4.25;;
55212;SDS011;41083;52.932;6.674;2023-07-28T12:34:55;9.98;;;4.03;;
55212;SDS011;41083;52.932;6.674;2023-07-28T12:37:20;8.15;;;4.57;;
55212;SDS011;41083;52.932;6.674;2023-07-28T12:39:47;6.50;;;3.88;;
55212;SDS011;41083;52.932;6.674;2023-07-28T12:42:13;6.93;;;3.22;;
55212;SDS011;41083;52.932;6.674;2023-07-28T12:44:42;5.55;;;3.53;;
55212;SDS011;41083;52.932;6.674;2023-07-28T12:47:07;7.35;;;3.30;;
55212;SDS011;41083;52.932;6.674;2023-07-28T12:49:33;8.10;;;3.72;;
55212;SDS011;41083;52.932;6.674;2023-07-28T12:52:03;4.70;;;2.90;;
55212;SDS011;41083;52.932;6.674;2023-07-28T12:54:32;4.75;;;2.92;;
55212;SDS011;41083;52.932;6.674;2023-07-28T12:56:58;7.68;;;4.40;;
55212;SDS011;41083;52.932;6.674;2023-07-28T12:59:23;5.10;;;3.17;;
55212;SDS011;41083;52.932;6.674;2023-07-28T13:01:49;5.53;;;3.35;;
55212;SDS011;41083;52.932;6.674;2023-07-28T13:04:15;6.53;;;3.58;;
55212;SDS011;41083;52.932;6.674;2023-07-28T13:06:40;7.30;;;3.65;;
55212;SDS011;41083;52.932;6.674;2023-07-28T13:09:06;4.75;;;2.90;;
55212;SDS011;41083;52.932;6.674;2023-07-28T13:11:33;6.85;;;2.78;;
55212;SDS011;41083;52.932;6.674;2023-07-28T13:13:59;7.32;;;2.42;;
55212;SDS011;41083;52.932;6.674;2023-07-28T13:16:25;5.53;;;3.42;;
55212;SDS011;41083;52.932;6.674;2023-07-28T13:18:50;6.32;;;3.33;;
55212;SDS011;41083;52.932;6.674;2023-07-28T13:21:17;5.20;;;2.72;;
55212;SDS011;41083;52.932;6.674;2023-07-28T13:23:42;4.53;;;2.40;;
55212;SDS011;41083;52.932;6.674;2023-07-28T13:26:08;4.43;;;2.55;;
55212;SDS011;41083;52.932;6.674;2023-07-28T13:28:34;4.40;;;2.88;;
55212;SDS011;41083;52.932;6.674;2023-07-28T13:31:03;4.85;;;2.55;;
55212;SDS011;41083;52.932;6.674;2023-07-28T13:33:29;4.90;;;2.63;;
55212;SDS011;41083;52.932;6.674;2023-07-28T13:35:55;3.47;;;2.45;;
55212;SDS011;41083;52.932;6.674;2023-07-28T13:38:21;4.28;;;2.17;;
55212;SDS011;41083;52.932;6.674;2023-07-28T13:40:47;4.93;;;2.83;;
55212;SDS011;41083;52.932;6.674;2023-07-28T13:43:13;8.60;;;3.53;;
55212;SDS011;41083;52.932;6.674;2023-07-28T13:45:38;5.57;;;2.97;;
55212;SDS011;41083;52.932;6.674;2023-07-28T13:48:04;5.13;;;2.63;;
55212;SDS011;41083;52.932;6.674;2023-07-28T13:50:29;4.55;;;2.83;;
55212;SDS011;41083;52.932;6.674;2023-07-28T13:52:55;4.30;;;2.70;;
55212;SDS011;41083;52.932;6.674;2023-07-28T13:55:21;7.53;;;2.40;;
55212;SDS011;41083;52.932;6.674;2023-07-28T13:57:46;4.22;;;2.17;;
55212;SDS011;41083;52.932;6.674;2023-07-28T14:00:12;3.90;;;2.20;;
55212;SDS011;41083;52.932;6.674;2023-07-28T14:02:38;4.03;;;2.47;;
55212;SDS011;41083;52.932;6.674;2023-07-28T14:05:05;3.22;;;2.17;;
55212;SDS011;41083;52.932;6.674;2023-07-28T14:07:32;6.45;;;2.63;;
55212;SDS011;41083;52.932;6.674;2023-07-28T14:09:59;3.78;;;2.35;;
55212;SDS011;41083;52.932;6.674;2023-07-28T14:12:24;4.65;;;2.75;;
55212;SDS011;41083;52.932;6.674;2023-07-28T14:14:50;4.47;;;2.45;;
55212;SDS011;41083;52.932;6.674;2023-07-28T14:17:16;4.88;;;2.42;;
55212;SDS011;41083;52.932;6.674;2023-07-28T14:19:41;4.38;;;2.50;;
55212;SDS011;41083;52.932;6.674;2023-07-28T14:22:07;5.50;;;2.42;;
55212;SDS011;41083;52.932;6.674;2023-07-28T14:24:33;3.63;;;2.42;;
55212;SDS011;41083;52.932;6.674;2023-07-28T14:26:59;4.57;;;2.35;;
55212;SDS011;41083;52.932;6.674;2023-07-28T14:29:25;4.55;;;2.40;;
55212;SDS011;41083;52.932;6.674;2023-07-28T14:31:51;4.22;;;1.95;;
55212;SDS011;41083;52.932;6.674;2023-07-28T14:34:17;5.95;;;1.88;;
55212;SDS011;41083;52.932;6.674;2023-07-28T14:36:42;4.65;;;2.45;;
55212;SDS011;41083;52.932;6.674;2023-07-28T14:39:08;5.22;;;2.42;;
55212;SDS011;41083;52.932;6.674;2023-07-28T14:41:34;3.83;;;2.40;;
55212;SDS011;41083;52.932;6.674;2023-07-28T14:44:00;5.78;;;3.58;;
55212;SDS011;41083;52.932;6.674;2023-07-28T14:46:26;4.65;;;2.83;;
55212;SDS011;41083;52.932;6.674;2023-07-28T14:48:51;5.97;;;2.33;;
55212;SDS011;41083;52.932;6.674;2023-07-28T14:51:18;3.67;;;2.00;;
55212;SDS011;41083;52.932;6.674;2023-07-28T14:53:43;5.32;;;2.80;;
55212;SDS011;41083;52.932;6.674;2023-07-28T14:56:11;4.50;;;2.63;;
55212;SDS011;41083;52.932;6.674;2023-07-28T14:58:37;4.75;;;2.63;;